Time;durP1;ratioP1;P1;durP2;ratioP2;P2;SDS_P1;SDS_P2;PMS_P1;PMS_P2;Temp;Humidity;BMP_temperature;BMP_pressure;BME280_temperature;BME280_humidity;BME280_pressure;Samples;Min_cycle;Max_cycle;Signal;HPM_P1;HPM_P2
2022/06/29 00:00:21;;;;;;;2.97;2.65;;;;;;;;;;5035233;28;20029;-71
2022/06/29 00:02:46;;;;;;;4.13;2.60;;;;;;;;;;5034786;28;20030;-71
2022/06/29 00:05:13;;;;;;;4.97;2.90;;;;;;;;;;5035578;28;20029;-69
2022/06/29 00:07:40;;;;;;;5.45;2.60;;;;;;;;;;5035254;28;20060;-70
2022/06/29 00:10:06;;;;;;;5.43;2.67;;;;;;;;;;5035337;28;20026;-70
2022/06/29 00:12:32;;;;;;;3.30;2.40;;;;;;;;;;5035072;28;20022;-70
2022/06/29 00:14:58;;;;;;;3.10;2.30;;;;;;;;;;5034742;28;20033;-70
2022/06/29 00:17:23;;;;;;;7.43;2.65;;;;;;;;;;5035146;28;20048;-70
2022/06/29 00:19:49;;;;;;;3.55;2.47;;;;;;;;;;5035160;28;20017;-70
2022/06/29 00:22:15;;;;;;;2.92;2.42;;;;;;;;;;5034801;28;20055;-69
2022/06/29 00:24:40;;;;;;;3.05;2.60;;;;;;;;;;5034805;28;20025;-70
2022/06/29 00:27:05;;;;;;;3.45;2.47;;;;;;;;;;5034885;28;20025;-70
2022/06/29 00:29:31;;;;;;;3.40;2.35;;;;;;;;;;5035067;28;20040;-70
2022/06/29 00:31:56;;;;;;;2.75;2.35;;;;;;;;;;5034773;28;20028;-70
2022/06/29 00:34:21;;;;;;;3.38;2.42;;;;;;;;;;5034941;28;20048;-70
2022/06/29 00:36:47;;;;;;;2.40;2.20;;;;;;;;;;5034838;28;20112;-71
2022/06/29 00:39:12;;;;;;;3.80;2.50;;;;;;;;;;5034911;28;20033;-70
2022/06/29 00:41:39;;;;;;;3.15;2.47;;;;;;;;;;5034786;28;20025;-70
2022/06/29 00:44:07;;;;;;;3.55;2.50;;;;;;;;;;5034377;28;20080;-70
2022/06/29 00:46:33;;;;;;;4.15;2.60;;;;;;;;;;5034567;28;20025;-70
2022/06/29 00:48:58;;;;;;;2.80;2.38;;;;;;;;;;5034408;28;20068;-71
2022/06/29 00:51:24;;;;;;;5.13;2.80;;;;;;;;;;5034373;28;20092;-70
2022/06/29 00:53:50;;;;;;;3.03;2.72;;;;;;;;;;5034388;28;20647;-71
2022/06/29 00:56:17;;;;;;;2.70;2.50;;;;;;;;;;5034212;28;20034;-70
2022/06/29 00:58:46;;;;;;;4.07;2.78;;;;;;;;;;5034178;28;20513;-68
2022/06/29 01:01:12;;;;;;;4.00;2.90;;;;;;;;;;5034182;28;20032;-70
2022/06/29 01:03:38;;;;;;;3.80;2.88;;;;;;;;;;5016367;28;20487;-69
2022/06/29 01:06:03;;;;;;;4.40;2.95;;;;;;;;;;5034143;28;20045;-70
2022/06/29 01:08:28;;;;;;;4.07;2.95;;;;;;;;;;5034434;28;20031;-70
2022/06/29 01:10:54;;;;;;;3.38;3.08;;;;;;;;;;5034418;28;20103;-69
2022/06/29 01:13:19;;;;;;;4.40;3.20;;;;;;;;;;5033409;28;20104;-70
2022/06/29 01:15:44;;;;;;;4.28;3.08;;;;;;;;;;5034283;28;20320;-70
2022/06/29 01:18:09;;;;;;;4.10;3.27;;;;;;;;;;5034100;28;20390;-69
2022/06/29 01:20:35;;;;;;;6.15;3.30;;;;;;;;;;5034076;28;20751;-71
2022/06/29 01:23:00;;;;;;;4.93;3.10;;;;;;;;;;5034008;28;20036;-70
2022/06/29 01:25:25;;;;;;;5.82;3.40;;;;;;;;;;5033991;28;20255;-70
2022/06/29 01:27:50;;;;;;;3.60;3.30;;;;;;;;;;5034044;28;20512;-70
2022/06/29 01:30:16;;;;;;;4.80;3.30;;;;;;;;;;5033983;28;20063;-71
2022/06/29 01:32:42;;;;;;;9.32;3.83;;;;;;;;;;5033813;28;20344;-71
2022/06/29 01:35:10;;;;;;;3.65;3.30;;;;;;;;;;5033766;28;20060;-70
2022/06/29 01:37:35;;;;;;;4.07;3.13;;;;;;;;;;5033469;28;20500;-70
2022/06/29 01:40:02;;;;;;;4.13;3.53;;;;;;;;;;5033432;28;20057;-70
2022/06/29 01:42:27;;;;;;;5.32;4.00;;;;;;;;;;5033510;28;20116;-70
2022/06/29 01:44:52;;;;;;;4.30;3.27;;;;;;;;;;5033594;28;20115;-70
2022/06/29 01:47:18;;;;;;;4.60;3.23;;;;;;;;;;5033522;28;20262;-71
2022/06/29 01:49:43;;;;;;;7.60;3.67;;;;;;;;;;5033607;28;20285;-70
2022/06/29 01:52:08;;;;;;;6.67;3.50;;;;;;;;;;5033618;28;20278;-70
2022/06/29 01:54:33;;;;;;;8.03;3.90;;;;;;;;;;5033492;28;20265;-71
2022/06/29 01:56:59;;;;;;;4.13;3.60;;;;;;;;;;5033546;28;20255;-70
2022/06/29 01:59:24;;;;;;;6.93;4.10;;;;;;;;;;5033632;28;20018;-71
2022/06/29 02:01:49;;;;;;;5.43;4.20;;;;;;;;;;5033290;28;20087;-71
2022/06/29 02:04:15;;;;;;;6.38;4.32;;;;;;;;;;5033688;28;20029;-69
2022/06/29 02:06:40;;;;;;;4.38;3.97;;;;;;;;;;5033763;28;20029;-71
2022/06/29 02:09:05;;;;;;;7.83;3.80;;;;;;;;;;5033474;28;20076;-70
2022/06/29 02:11:30;;;;;;;4.07;3.70;;;;;;;;;;5033439;28;20290;-70
2022/06/29 02:13:55;;;;;;;4.17;3.77;;;;;;;;;;5033428;28;20021;-70
2022/06/29 02:16:21;;;;;;;5.18;3.92;;;;;;;;;;5033548;28;20263;-71
2022/06/29 02:18:46;;;;;;;5.43;3.85;;;;;;;;;;5034015;28;20525;-71
2022/06/29 02:21:12;;;;;;;5.93;4.40;;;;;;;;;;5016025;28;20217;-71
2022/06/29 02:23:37;;;;;;;5.93;4.10;;;;;;;;;;5033625;28;20025;-70
2022/06/29 02:26:02;;;;;;;4.45;3.92;;;;;;;;;;5036122;28;20522;-71
2022/06/29 02:28:28;;;;;;;4.43;4.03;;;;;;;;;;5037236;28;20032;-71
2022/06/29 02:36:21;;;;;;;4.65;3.92;;;;;;;;;;5037740;28;20048;-70
2022/06/29 02:38:46;;;;;;;4.30;3.80;;;;;;;;;;5037370;28;20478;-71
2022/06/29 02:41:12;;;;;;;6.03;3.90;;;;;;;;;;5037316;28;20021;-71
2022/06/29 02:43:37;;;;;;;4.65;3.83;;;;;;;;;;5037178;28;20036;-70
2022/06/29 02:46:02;;;;;;;4.95;4.28;;;;;;;;;;5037111;28;20029;-71
2022/06/29 02:48:28;;;;;;;4.30;3.90;;;;;;;;;;5037355;28;20082;-71
2022/06/29 02:50:53;;;;;;;7.90;3.72;;;;;;;;;;5037117;28;20021;-70
2022/06/29 02:53:18;;;;;;;4.70;4.20;;;;;;;;;;5037015;28;20033;-71
2022/06/29 02:55:43;;;;;;;6.23;4.40;;;;;;;;;;5037178;28;20265;-71
2022/06/29 02:58:09;;;;;;;5.23;3.90;;;;;;;;;;5037594;28;20254;-70
2022/06/29 03:00:34;;;;;;;5.78;3.58;;;;;;;;;;5037426;28;20719;-70
2022/06/29 03:03:00;;;;;;;3.67;3.38;;;;;;;;;;5037103;28;20030;-69
2022/06/29 03:05:25;;;;;;;3.78;3.40;;;;;;;;;;5035347;28;20021;-71
2022/06/29 03:07:50;;;;;;;3.70;3.10;;;;;;;;;;5037368;28;20025;-70
2022/06/29 03:10:16;;;;;;;6.53;3.33;;;;;;;;;;5036958;28;20262;-71
2022/06/29 03:12:41;;;;;;;4.65;3.28;;;;;;;;;;5036173;28;20087;-70
2022/06/29 03:15:07;;;;;;;4.63;3.80;;;;;;;;;;5035865;28;20086;-70
2022/06/29 03:17:32;;;;;;;5.53;3.10;;;;;;;;;;5035986;28;20263;-71
2022/06/29 03:19:58;;;;;;;5.43;3.65;;;;;;;;;;5018100;28;20431;-70
2022/06/29 03:22:24;;;;;;;3.83;3.20;;;;;;;;;;5018084;28;20038;-70
2022/06/29 03:24:50;;;;;;;5.22;3.33;;;;;;;;;;5035641;28;20025;-70
2022/06/29 03:27:15;;;;;;;4.75;3.70;;;;;;;;;;5017900;28;20018;-70
2022/06/29 03:29:41;;;;;;;5.05;3.75;;;;;;;;;;5035750;28;20056;-70
2022/06/29 03:32:07;;;;;;;5.30;3.50;;;;;;;;;;5017947;28;20116;-71
2022/06/29 03:34:32;;;;;;;5.22;3.70;;;;;;;;;;5035751;28;20115;-71
2022/06/29 03:36:57;;;;;;;5.47;3.53;;;;;;;;;;5034378;28;20393;-70
2022/06/29 03:39:22;;;;;;;4.77;3.57;;;;;;;;;;5035830;28;20736;-70
2022/06/29 03:41:48;;;;;;;5.33;3.50;;;;;;;;;;5035943;28;20698;-70
2022/06/29 03:44:13;;;;;;;5.85;4.05;;;;;;;;;;5040243;28;20290;-71
2022/06/29 03:46:38;;;;;;;5.03;3.60;;;;;;;;;;5042555;28;20021;-71
2022/06/29 03:49:03;;;;;;;4.67;3.73;;;;;;;;;;5039884;28;20273;-70
2022/06/29 03:51:28;;;;;;;7.33;4.47;;;;;;;;;;5038091;28;20255;-71
2022/06/29 03:53:54;;;;;;;6.07;4.30;;;;;;;;;;5037927;28;20269;-70
2022/06/29 03:56:19;;;;;;;5.43;4.20;;;;;;;;;;5038113;28;20251;-71
2022/06/29 03:58:45;;;;;;;5.60;4.30;;;;;;;;;;5038454;28;20263;-70
2022/06/29 04:01:10;;;;;;;8.40;4.60;;;;;;;;;;5038413;28;20466;-71
2022/06/29 04:03:35;;;;;;;5.68;4.07;;;;;;;;;;5037826;28;20479;-71
2022/06/29 04:06:01;;;;;;;4.50;3.97;;;;;;;;;;5037972;28;20076;-71
2022/06/29 04:08:26;;;;;;;5.10;3.78;;;;;;;;;;5038439;28;20075;-71
2022/06/29 04:10:51;;;;;;;7.50;4.13;;;;;;;;;;5038483;28;20052;-71
2022/06/29 04:13:17;;;;;;;9.32;4.10;;;;;;;;;;5019920;28;20399;-71
2022/06/29 04:15:42;;;;;;;5.85;4.30;;;;;;;;;;5036189;28;20032;-70
2022/06/29 04:18:07;;;;;;;5.75;4.30;;;;;;;;;;5036159;28;20029;-71
2022/06/29 04:23:16;;;;;;;6.18;4.55;;;;;;;;;;5036222;28;20041;-71
2022/06/29 04:25:41;;;;;;;4.97;4.20;;;;;;;;;;5035896;28;20029;-71
2022/06/29 04:28:07;;;;;;;6.27;4.63;;;;;;;;;;5036155;28;20266;-71
2022/06/29 04:30:33;;;;;;;5.55;4.97;;;;;;;;;;5035704;28;20259;-71
2022/06/29 04:32:59;;;;;;;7.15;4.72;;;;;;;;;;5035392;28;20026;-71
2022/06/29 04:35:24;;;;;;;5.70;5.05;;;;;;;;;;5035559;28;20065;-70
2022/06/29 04:37:49;;;;;;;6.30;5.05;;;;;;;;;;5035300;28;20079;-70
2022/06/29 04:40:15;;;;;;;5.72;4.97;;;;;;;;;;5034756;28;20025;-71
2022/06/29 04:42:40;;;;;;;6.03;5.43;;;;;;;;;;5034447;28;20482;-70
2022/06/29 04:45:06;;;;;;;7.93;5.53;;;;;;;;;;5034422;28;20059;-71
2022/06/29 04:47:33;;;;;;;7.75;5.40;;;;;;;;;;5034124;28;20345;-70
2022/06/29 04:49:59;;;;;;;6.20;5.60;;;;;;;;;;5034428;28;20071;-71
2022/06/29 04:52:24;;;;;;;6.40;5.50;;;;;;;;;;5034199;28;20029;-69
2022/06/29 04:54:50;;;;;;;6.00;5.40;;;;;;;;;;5034377;28;20332;-71
2022/06/29 04:57:15;;;;;;;6.95;6.00;;;;;;;;;;5034353;28;20048;-70
2022/06/29 04:59:40;;;;;;;6.30;5.65;;;;;;;;;;5034000;28;20033;-70
2022/06/29 05:02:06;;;;;;;7.33;5.63;;;;;;;;;;5034101;28;20060;-70
2022/06/29 05:04:31;;;;;;;11.47;5.57;;;;;;;;;;5034039;28;20275;-71
2022/06/29 05:06:56;;;;;;;8.03;5.93;;;;;;;;;;5034249;28;20282;-71
2022/06/29 05:09:21;;;;;;;6.70;5.80;;;;;;;;;;5033901;28;20274;-71
2022/06/29 05:11:46;;;;;;;6.90;6.00;;;;;;;;;;5034100;28;20254;-70
2022/06/29 05:14:12;;;;;;;7.77;5.33;;;;;;;;;;5033906;28;20273;-70
2022/06/29 05:16:38;;;;;;;6.25;5.65;;;;;;;;;;5033817;28;20263;-70
2022/06/29 05:19:03;;;;;;;7.07;5.70;;;;;;;;;;5033950;28;20104;-70
2022/06/29 05:21:30;;;;;;;10.45;5.82;;;;;;;;;;5033682;28;20113;-70
2022/06/29 05:23:55;;;;;;;7.38;5.50;;;;;;;;;;5016060;28;20582;-70
2022/06/29 05:26:20;;;;;;;6.13;5.53;;;;;;;;;;5033712;28;20057;-70
2022/06/29 05:28:47;;;;;;;8.23;5.78;;;;;;;;;;5033556;28;20052;-71
2022/06/29 05:31:13;;;;;;;7.15;5.40;;;;;;;;;;5033461;28;20113;-70
2022/06/29 05:33:38;;;;;;;6.07;4.72;;;;;;;;;;5033382;28;20459;-71
2022/06/29 05:36:06;;;;;;;6.85;5.22;;;;;;;;;;5033367;28;20037;-70
2022/06/29 05:38:32;;;;;;;6.22;5.10;;;;;;;;;;5033513;28;20021;-70
2022/06/29 05:41:00;;;;;;;7.32;4.78;;;;;;;;;;5033550;28;20550;-70
2022/06/29 05:43:25;;;;;;;5.68;4.85;;;;;;;;;;5015220;28;20041;-69
2022/06/29 05:45:51;;;;;;;5.45;4.82;;;;;;;;;;5033665;28;20021;-71
2022/06/29 05:48:16;;;;;;;6.07;4.47;;;;;;;;;;5033440;28;20036;-70
2022/06/29 05:50:41;;;;;;;5.55;4.28;;;;;;;;;;5033483;28;20308;-71
2022/06/29 05:53:06;;;;;;;5.17;4.50;;;;;;;;;;5033588;28;20021;-70
2022/06/29 05:55:32;;;;;;;6.22;4.45;;;;;;;;;;5033177;28;20318;-70
2022/06/29 05:57:57;;;;;;;6.40;4.40;;;;;;;;;;5033685;28;20028;-70
2022/06/29 06:00:25;;;;;;;7.45;4.43;;;;;;;;;;5034802;28;20271;-70
2022/06/29 06:02:51;;;;;;;4.85;4.10;;;;;;;;;;5037403;28;20033;-71
2022/06/29 06:05:16;;;;;;;5.07;4.18;;;;;;;;;;5037562;28;20036;-71
2022/06/29 06:07:41;;;;;;;4.85;3.50;;;;;;;;;;5037436;28;20147;-70
2022/06/29 06:10:07;;;;;;;4.10;3.60;;;;;;;;;;5037564;28;20017;-70
2022/06/29 06:12:33;;;;;;;3.85;3.30;;;;;;;;;;5037197;28;20056;-70
2022/06/29 06:14:59;;;;;;;6.47;3.40;;;;;;;;;;5037234;28;20091;-70
2022/06/29 06:17:27;;;;;;;5.47;3.40;;;;;;;;;;5037128;28;20079;-69
2022/06/29 06:19:54;;;;;;;5.65;3.83;;;;;;;;;;5037378;28;20025;-70
2022/06/29 06:22:19;;;;;;;5.10;3.60;;;;;;;;;;5019507;28;20521;-69
2022/06/29 06:24:44;;;;;;;5.13;3.10;;;;;;;;;;5037060;28;20025;-69
2022/06/29 06:27:09;;;;;;;4.43;3.10;;;;;;;;;;5036919;28;20104;-71
2022/06/29 06:29:35;;;;;;;3.90;3.20;;;;;;;;;;5036949;28;20344;-70
2022/06/29 06:32:01;;;;;;;5.18;3.33;;;;;;;;;;5036674;28;20631;-70
2022/06/29 06:34:26;;;;;;;6.93;3.20;;;;;;;;;;5036676;28;20398;-70
2022/06/29 06:36:52;;;;;;;3.83;2.97;;;;;;;;;;5036600;28;20021;-70
2022/06/29 06:39:17;;;;;;;3.92;2.72;;;;;;;;;;5036886;28;20025;-70
2022/06/29 06:41:42;;;;;;;4.27;2.60;;;;;;;;;;5036818;28;20018;-70
2022/06/29 06:44:07;;;;;;;3.43;2.70;;;;;;;;;;5036372;28;20316;-71
2022/06/29 06:46:34;;;;;;;3.30;3.00;;;;;;;;;;5036742;28;20262;-70
2022/06/29 06:48:59;;;;;;;3.72;2.90;;;;;;;;;;5036566;28;20707;-70
2022/06/29 06:51:24;;;;;;;3.42;2.80;;;;;;;;;;5036684;28;20026;-70
2022/06/29 06:53:50;;;;;;;3.33;2.72;;;;;;;;;;5036424;28;20140;-71
2022/06/29 06:56:16;;;;;;;6.15;3.20;;;;;;;;;;5002126;28;20033;-71
2022/06/29 06:58:42;;;;;;;4.07;3.28;;;;;;;;;;5035891;28;20086;-70
2022/06/29 07:01:08;;;;;;;5.35;4.00;;;;;;;;;;5035976;28;20398;-71
2022/06/29 07:03:36;;;;;;;4.45;3.05;;;;;;;;;;5036089;28;20029;-70
2022/06/29 07:06:08;;;;;;;4.88;3.33;;;;;;;;;;5036076;28;20432;-71
2022/06/29 07:08:36;;;;;;;4.37;3.50;;;;;;;;;;5018353;28;20021;-70
2022/06/29 07:11:03;;;;;;;4.40;3.22;;;;;;;;;;5035699;28;20087;-70
2022/06/29 07:13:28;;;;;;;6.70;3.50;;;;;;;;;;5036156;28;20490;-70
2022/06/29 07:15:53;;;;;;;4.07;3.35;;;;;;;;;;5035866;28;20033;-70
2022/06/29 07:18:19;;;;;;;5.03;3.63;;;;;;;;;;5036149;28;20033;-71
2022/06/29 07:20:44;;;;;;;4.05;3.20;;;;;;;;;;5035840;28;20034;-69
2022/06/29 07:23:10;;;;;;;5.70;3.67;;;;;;;;;;5036164;28;20101;-70
2022/06/29 07:25:35;;;;;;;5.05;3.70;;;;;;;;;;5035820;28;20040;-69
2022/06/29 07:28:00;;;;;;;5.10;3.60;;;;;;;;;;5035692;28;20051;-70
2022/06/29 07:30:26;;;;;;;5.03;3.78;;;;;;;;;;5035558;28;20029;-70
2022/06/29 07:32:51;;;;;;;5.00;3.60;;;;;;;;;;5035947;28;20533;-69
2022/06/29 07:35:16;;;;;;;7.37;3.30;;;;;;;;;;5036097;28;20167;-71
2022/06/29 07:37:42;;;;;;;5.70;3.42;;;;;;;;;;5035915;28;20273;-71
2022/06/29 07:40:08;;;;;;;4.40;3.38;;;;;;;;;;5035548;28;20390;-71
2022/06/29 07:42:35;;;;;;;3.85;3.13;;;;;;;;;;5035595;28;20037;-70
2022/06/29 07:45:00;;;;;;;3.97;3.00;;;;;;;;;;5035547;28;20021;-69
2022/06/29 07:47:26;;;;;;;7.55;3.40;;;;;;;;;;5035726;28;20056;-71
2022/06/29 07:49:51;;;;;;;9.00;3.90;;;;;;;;;;5035250;28;20017;-70
2022/06/29 07:52:16;;;;;;;4.23;3.13;;;;;;;;;;5035342;28;20269;-70
2022/06/29 07:54:41;;;;;;;5.63;3.67;;;;;;;;;;5035103;28;20342;-70
2022/06/29 07:57:06;;;;;;;5.10;3.70;;;;;;;;;;5035488;28;20270;-70
2022/06/29 07:59:32;;;;;;;4.73;3.73;;;;;;;;;;5035534;28;20321;-70
2022/06/29 08:01:57;;;;;;;6.97;3.87;;;;;;;;;;5035477;28;20270;-70
2022/06/29 08:04:22;;;;;;;4.43;3.77;;;;;;;;;;5035607;28;20761;-79
2022/06/29 08:06:47;;;;;;;4.40;3.37;;;;;;;;;;5039481;28;20621;-78
2022/06/29 08:09:15;;;;;;;5.43;4.07;;;;;;;;;;5041969;28;20269;-79
2022/06/29 08:11:41;;;;;;;5.75;4.00;;;;;;;;;;5039755;28;20259;-79
2022/06/29 08:14:06;;;;;;;5.80;4.00;;;;;;;;;;5037943;28;20033;-78
2022/06/29 08:16:33;;;;;;;7.17;4.10;;;;;;;;;;5038203;28;20266;-79
2022/06/29 08:18:58;;;;;;;6.65;4.13;;;;;;;;;;5037337;28;20742;-77
2022/06/29 08:21:24;;;;;;;5.43;4.20;;;;;;;;;;5037075;28;20029;-78
2022/06/29 08:23:49;;;;;;;5.85;4.18;;;;;;;;;;5036869;28;20338;-77
2022/06/29 08:26:14;;;;;;;4.67;3.97;;;;;;;;;;5037085;28;20120;-77
2022/06/29 08:28:40;;;;;;;8.15;4.35;;;;;;;;;;5036479;28;20308;-78
2022/06/29 08:31:05;;;;;;;5.22;4.40;;;;;;;;;;5036106;28;20482;-78
2022/06/29 08:33:31;;;;;;;7.63;4.43;;;;;;;;;;5039201;28;20032;-80
2022/06/29 08:37:03;;;;;;;7.33;5.10;;;;;;;;;;5092456;22;20048;-78
2022/06/29 08:40:07;;;;;;;7.57;5.57;;;;;;;;;;5078482;28;20265;-78
2022/06/29 08:43:05;;;;;;;6.97;5.35;;;;;;;;;;5025228;28;20049;-78
2022/06/29 08:56:48;;;;;;;7.85;5.68;;;;;;;;;;5019203;28;20029;-79
2022/06/29 09:03:18;;;;;;;;;;;;;;;;;;;;;
2022/06/29 09:06:44;;;;;;;;;;;;;;;;;;;;;
2022/06/29 09:10:04;;;;;;;8.55;6.07;;;;;;;;;;5072276;28;20116;-77
2022/06/29 09:13:19;;;;;;;8.80;6.65;;;;;;;;;;5077367;28;20031;-79
2022/06/29 09:19:13;;;;;;;;;;;;;;;;;;;;;
2022/06/29 09:22:41;;;;;;;;;;;;;;;;;;;;;
2022/06/29 09:26:09;;;;;;;13.52;6.97;;;;;;;;;;5032587;28;20121;-79
2022/06/29 09:28:57;;;;;;;9.95;6.90;;;;;;;;;;4996531;28;20033;-75
2022/06/29 09:31:53;;;;;;;7.95;6.35;;;;;;;;;;5037638;28;20052;-79
2022/06/29 09:34:24;;;;;;;11.63;6.60;;;;;;;;;;5036906;28;20029;-78
2022/06/29 09:36:59;;;;;;;8.95;6.80;;;;;;;;;;5036723;28;20032;-77
2022/06/29 09:39:54;;;;;;;7.40;6.47;;;;;;;;;;5036925;28;20051;-77
2022/06/29 09:46:20;;;;;;;7.65;5.75;;;;;;;;;;5036388;28;20053;-77
2022/06/29 09:49:22;;;;;;;11.70;6.32;;;;;;;;;;5017112;28;20049;-77
2022/06/29 09:51:48;;;;;;;7.78;6.13;;;;;;;;;;5038834;28;20033;-78
2022/06/29 09:54:41;;;;;;;8.70;5.82;;;;;;;;;;5039611;28;20522;-79
2022/06/29 09:57:20;;;;;;;10.43;6.07;;;;;;;;;;5002321;28;20049;-77
2022/06/29 10:04:10;;;;;;;8.63;5.32;;;;;;;;;;5032480;28;20095;-77
2022/06/29 10:06:45;;;;;;;6.30;5.20;;;;;;;;;;4954621;28;20043;-79
2022/06/29 10:15:50;;;;;;;7.43;4.90;;;;;;;;;;5024321;28;20040;-78
2022/06/29 10:18:58;;;;;;;6.63;4.60;;;;;;;;;;5036183;28;20032;-78
2022/06/29 10:25:30;;;;;;;5.68;4.60;;;;;;;;;;5070427;22;20039;-77
2022/06/29 10:29:00;;;;;;;8.80;4.55;;;;;;;;;;5012713;28;20060;-77
2022/06/29 10:38:21;;;;;;;;;;;;;;;;;;;;;
2022/06/29 10:44:32;;;;;;;6.70;4.38;;;;;;;;;;5004662;28;20516;-79
2022/06/29 10:47:03;;;;;;;5.00;4.10;;;;;;;;;;4994709;28;20046;-77
2022/06/29 10:49:34;;;;;;;4.93;4.40;;;;;;;;;;5034839;28;20104;-78
2022/06/29 10:52:11;;;;;;;5.40;4.20;;;;;;;;;;5037818;28;20022;-77
2022/06/29 10:58:21;;;;;;;6.05;4.30;;;;;;;;;;5009299;28;20032;-79
2022/06/29 11:01:32;;;;;;;;;;;;;;;;;;;;;
2022/06/29 11:03:57;;;;;;;5.93;4.00;;;;;;;;;;5028222;28;20097;-79
2022/06/29 11:12:27;;;;;;;9.20;5.18;;;;;;;;;;5044295;28;20037;-78
2022/06/29 11:15:55;;;;;;;6.35;5.30;;;;;;;;;;5067699;22;20064;-78
2022/06/29 11:18:33;;;;;;;7.88;5.80;;;;;;;;;;5079351;28;20032;-79
2022/06/29 11:24:26;;;;;;;9.15;5.85;;;;;;;;;;5078333;28;20028;-78
2022/06/29 11:34:14;;;;;;;11.20;7.07;;;;;;;;;;5059434;28;20055;-78
2022/06/29 11:36:42;;;;;;;10.38;7.70;;;;;;;;;;5062166;28;20025;-79
2022/06/29 11:39:17;;;;;;;9.70;7.40;;;;;;;;;;5059837;28;20025;-78
2022/06/29 11:45:13;;;;;;;10.05;7.70;;;;;;;;;;5019408;28;20128;-78
2022/06/29 11:47:51;;;;;;;10.95;7.03;;;;;;;;;;5039746;28;20060;-78
2022/06/29 11:50:55;;;;;;;10.07;6.80;;;;;;;;;;5056502;28;20418;-77
2022/06/29 11:53:43;;;;;;;10.52;6.75;;;;;;;;;;4956636;29;20512;-78
2022/06/29 11:56:19;;;;;;;10.93;8.02;;;;;;;;;;4958513;29;20091;-79
2022/06/29 11:59:29;;;;;;;10.95;7.57;;;;;;;;;;4956912;28;20063;-79
2022/06/29 12:02:00;;;;;;;12.95;7.28;;;;;;;;;;4958864;29;20031;-78
2022/06/29 12:04:37;;;;;;;9.25;7.40;;;;;;;;;;5016515;28;20087;-79
2022/06/29 12:07:08;;;;;;;9.65;7.43;;;;;;;;;;5062982;28;20061;-77
2022/06/29 12:10:08;;;;;;;8.98;7.75;;;;;;;;;;5059432;28;20029;-78
2022/06/29 12:13:23;;;;;;;;;;;;;;;;;;;;;
2022/06/29 12:16:09;;;;;;;10.05;8.00;;;;;;;;;;5061525;28;20438;-77
2022/06/29 12:18:49;;;;;;;10.60;7.80;;;;;;;;;;5044234;28;20032;-79
2022/06/29 12:21:50;;;;;;;;;;;;;;;;;;;;;
2022/06/29 12:24:22;;;;;;;9.60;7.68;;;;;;;;;;5061140;28;20104;-78
2022/06/29 12:26:58;;;;;;;10.52;8.35;;;;;;;;;;5040700;28;20037;-78
2022/06/29 12:33:09;;;;;;;12.82;9.93;;;;;;;;;;5054523;28;20041;-78
2022/06/29 12:36:15;;;;;;;12.93;9.90;;;;;;;;;;5044996;28;20028;-79
2022/06/29 12:41:59;;;;;;;12.03;10.20;;;;;;;;;;5057524;28;20025;-78
2022/06/29 12:44:25;;;;;;;14.30;9.93;;;;;;;;;;5042602;28;20027;-77
2022/06/29 12:47:08;;;;;;;11.10;9.00;;;;;;;;;;5064062;28;20111;-78
2022/06/29 12:49:57;;;;;;;11.15;8.65;;;;;;;;;;5063306;28;20056;-79
2022/06/29 12:52:42;;;;;;;12.60;9.05;;;;;;;;;;5049768;28;20048;-78
2022/06/29 12:55:15;;;;;;;13.25;10.10;;;;;;;;;;5059942;28;20025;-78
2022/06/29 12:57:44;;;;;;;13.65;9.50;;;;;;;;;;5059192;28;20078;-77
2022/06/29 13:00:20;;;;;;;11.63;8.73;;;;;;;;;;5060076;28;20036;-78
2022/06/29 13:02:45;;;;;;;12.15;8.38;;;;;;;;;;5058442;28;20040;-79
2022/06/29 13:05:11;;;;;;;10.15;8.70;;;;;;;;;;5059833;28;20029;-77
2022/06/29 13:07:37;;;;;;;15.07;8.95;;;;;;;;;;5060160;28;20025;-77
2022/06/29 13:10:13;;;;;;;12.25;9.80;;;;;;;;;;5059842;28;20029;-79
2022/06/29 13:12:41;;;;;;;14.10;9.30;;;;;;;;;;5060666;28;20029;-77
2022/06/29 13:15:21;;;;;;;16.75;9.70;;;;;;;;;;5061919;28;20070;-79
2022/06/29 13:18:10;;;;;;;15.75;10.75;;;;;;;;;;5064218;28;20029;-79
2022/06/29 13:20:35;;;;;;;11.75;9.65;;;;;;;;;;5047547;28;20124;-79
2022/06/29 13:23:18;;;;;;;13.77;10.30;;;;;;;;;;5060535;28;20056;-78
2022/06/29 13:25:47;;;;;;;16.13;10.43;;;;;;;;;;5041206;28;20041;-78
2022/06/29 13:28:19;;;;;;;13.00;10.52;;;;;;;;;;5044840;28;20039;-79
2022/06/29 13:30:44;;;;;;;14.38;10.60;;;;;;;;;;5059684;28;20023;-78
2022/06/29 13:33:17;;;;;;;13.95;10.52;;;;;;;;;;5060139;28;20100;-78
2022/06/29 13:36:08;;;;;;;11.18;8.80;;;;;;;;;;5041798;28;20123;-78
2022/06/29 13:38:36;;;;;;;12.18;10.25;;;;;;;;;;5059401;28;20025;-78
2022/06/29 13:41:15;;;;;;;11.80;9.68;;;;;;;;;;5058954;28;20078;-78
2022/06/29 13:43:50;;;;;;;11.77;10.15;;;;;;;;;;5059359;28;20028;-78
2022/06/29 13:46:38;;;;;;;15.38;10.55;;;;;;;;;;5044108;28;20045;-78
2022/06/29 13:49:03;;;;;;;13.48;10.27;;;;;;;;;;5059719;28;20080;-78
2022/06/29 13:51:37;;;;;;;15.73;10.68;;;;;;;;;;5042309;28;20110;-79
2022/06/29 13:54:10;;;;;;;14.00;10.88;;;;;;;;;;5059679;28;20100;-78
2022/06/29 13:59:42;;;;;;;13.75;10.52;;;;;;;;;;5055427;28;20452;-77
2022/06/29 14:02:08;;;;;;;14.20;10.63;;;;;;;;;;5060528;28;20021;-78
2022/06/29 14:04:36;;;;;;;14.63;10.00;;;;;;;;;;5056580;28;20025;-77
2022/06/29 14:07:14;;;;;;;15.25;10.63;;;;;;;;;;5060470;28;20052;-78
2022/06/29 14:09:44;;;;;;;15.27;10.93;;;;;;;;;;5054961;28;20017;-79
2022/06/29 14:15:18;;;;;;;13.05;11.20;;;;;;;;;;5049780;28;20049;-77
2022/06/29 14:18:06;;;;;;;12.07;9.75;;;;;;;;;;5056303;28;20449;-78
2022/06/29 14:20:56;;;;;;;15.82;10.18;;;;;;;;;;5037465;28;20063;-77
2022/06/29 14:26:41;;;;;;;15.43;11.07;;;;;;;;;;5062450;28;20044;-78
2022/06/29 14:29:07;;;;;;;13.70;10.55;;;;;;;;;;5042574;28;20020;-77
2022/06/29 14:31:40;;;;;;;15.40;10.68;;;;;;;;;;5059471;28;20394;-78
2022/06/29 14:34:05;;;;;;;14.75;10.93;;;;;;;;;;5058496;28;20043;-77
2022/06/29 14:37:01;;;;;;;13.45;10.70;;;;;;;;;;5059446;28;20029;-80
2022/06/29 14:40:10;;;;;;;;;;;;;;;;;;;;;
2022/06/29 14:42:39;;;;;;;16.35;11.50;;;;;;;;;;5062837;28;20096;-78
2022/06/29 14:45:05;;;;;;;16.65;11.90;;;;;;;;;;5062662;28;20057;-79
2022/06/29 14:48:22;;;;;;;15.35;10.48;;;;;;;;;;5061108;28;20035;-78
2022/06/29 14:51:11;;;;;;;16.92;11.50;;;;;;;;;;5055992;28;20032;-78
2022/06/29 14:54:47;;;;;;;;;;;;;;;;;;;;;
2022/06/29 14:57:56;;;;;;;11.45;9.70;;;;;;;;;;5031543;28;20125;-78
2022/06/29 15:00:54;;;;;;;16.85;11.55;;;;;;;;;;5060135;28;20086;-77
2022/06/29 15:04:12;;;;;;;13.95;11.40;;;;;;;;;;5022780;28;20029;-79
2022/06/29 15:13:35;;;;;;;15.95;10.68;;;;;;;;;;4974405;28;19953;-79
2022/06/29 15:16:02;;;;;;;23.33;10.23;;;;;;;;;;4915704;29;20039;-79
2022/06/29 15:18:30;;;;;;;15.60;12.35;;;;;;;;;;4964996;29;20037;-78
2022/06/29 15:20:56;;;;;;;15.32;11.32;;;;;;;;;;5036066;28;20499;-77
2022/06/29 15:23:37;;;;;;;14.60;11.40;;;;;;;;;;5060729;28;20033;-78
2022/06/29 15:29:23;;;;;;;14.30;10.63;;;;;;;;;;5062415;28;20032;-79
2022/06/29 15:31:48;;;;;;;17.85;12.00;;;;;;;;;;5061073;28;20088;-78
2022/06/29 15:42:34;;;;;;;14.65;11.27;;;;;;;;;;4973808;28;20433;-78
2022/06/29 15:45:15;;;;;;;16.30;11.70;;;;;;;;;;5033478;28;20446;-77
2022/06/29 15:51:46;;;;;;;17.02;11.63;;;;;;;;;;4958486;29;20066;-78
2022/06/29 15:57:21;;;;;;;17.13;12.55;;;;;;;;;;4957917;29;20464;-78
2022/06/29 15:59:52;;;;;;;19.77;12.73;;;;;;;;;;5047752;28;20084;-76
2022/06/29 16:03:03;;;;;;;18.63;13.57;;;;;;;;;;5059383;28;20071;-78
2022/06/29 16:06:10;;;;;;;;;;;;;;;;;;;;;
2022/06/29 16:08:53;;;;;;;19.67;13.65;;;;;;;;;;5022007;28;20123;-79
2022/06/29 16:11:20;;;;;;;30.65;16.30;;;;;;;;;;5063590;28;20027;-78
2022/06/29 16:13:45;;;;;;;35.90;17.13;;;;;;;;;;5067602;28;20036;-78
2022/06/29 16:16:11;;;;;;;37.17;17.38;;;;;;;;;;5067277;28;20127;-77
2022/06/29 16:18:36;;;;;;;32.73;18.43;;;;;;;;;;5067184;28;20123;-78
2022/06/29 16:21:02;;;;;;;41.90;22.17;;;;;;;;;;5067215;28;20273;-78
2022/06/29 16:23:28;;;;;;;43.75;22.88;;;;;;;;;;5047172;28;20261;-78
2022/06/29 16:25:53;;;;;;;48.72;22.20;;;;;;;;;;5067842;28;20020;-78
2022/06/29 16:28:18;;;;;;;51.53;23.40;;;;;;;;;;5065069;28;20031;-78
2022/06/29 16:30:43;;;;;;;47.93;21.87;;;;;;;;;;5045521;28;20372;-78
2022/06/29 16:33:09;;;;;;;42.17;21.90;;;;;;;;;;5063750;28;20254;-78
2022/06/29 16:35:34;;;;;;;33.70;20.20;;;;;;;;;;5065522;28;20264;-79
2022/06/29 16:37:59;;;;;;;37.38;20.40;;;;;;;;;;5068947;28;20028;-80
2022/06/29 16:40:25;;;;;;;42.85;23.35;;;;;;;;;;5067551;28;20032;-79
2022/06/29 16:42:50;;;;;;;40.47;20.70;;;;;;;;;;5069677;28;20032;-80
2022/06/29 16:45:15;;;;;;;45.63;22.00;;;;;;;;;;5070295;28;20360;-80
2022/06/29 16:47:40;;;;;;;38.23;20.43;;;;;;;;;;5071181;28;20380;-80
2022/06/29 16:50:06;;;;;;;41.60;20.97;;;;;;;;;;5070297;28;20289;-79
2022/06/29 16:52:31;;;;;;;42.47;21.48;;;;;;;;;;5068724;28;20268;-79
2022/06/29 16:54:56;;;;;;;39.92;20.27;;;;;;;;;;5068517;28;20092;-77
2022/06/29 16:57:22;;;;;;;46.23;22.60;;;;;;;;;;5068112;28;20024;-78
2022/06/29 16:59:47;;;;;;;40.75;20.13;;;;;;;;;;5064502;28;20273;-78
2022/06/29 17:02:12;;;;;;;42.60;22.10;;;;;;;;;;5059689;28;20041;-80
2022/06/29 17:04:38;;;;;;;37.47;20.37;;;;;;;;;;5065509;28;20076;-79
2022/06/29 17:07:03;;;;;;;48.10;20.60;;;;;;;;;;5068244;28;20262;-78
2022/06/29 17:09:28;;;;;;;41.42;21.27;;;;;;;;;;5067035;28;20028;-78
2022/06/29 17:11:53;;;;;;;37.75;20.38;;;;;;;;;;5063816;28;20379;-78